Lowry, Colorado
Current Conditions -  °F | °C
As of 6:58 PM on Saturday 22 Nov 2014 (Local Time) from KBKF Reporting Station
Broken Clouds Broken Clouds  
Wind Chill: 40°   Ceiling: 15000
Heat Index: 46°   Visibility: 10mi
Dew Point: 25°   Wind: 13mph
Humidity: 44%   Direction: 310°NW
Pressure: 29.6"   Gusts: NA
Location:  39.732°N, 104.924°W
Report Text: KBKF 230158Z 31011KT 10SM FEW100 BKN150 08/M04 A2960 RMK AO2A SLP001 T00791037
Loading
Personal Weather Stations






























Interactive Weather Map New forecast layout! Learn more

10-Day Weather Forecast

Advertisements
Track Severe Weather on mobile